sensor_id;sensor_type;location;lat;lon;timestamp;temperature;humidity
10788;DHT22;5446;50.826;4.380;2023-06-14T00:00:58;21.60;45.60
10788;DHT22;5446;50.826;4.380;2023-06-14T00:03:24;21.60;45.30
10788;DHT22;5446;50.826;4.380;2023-06-14T00:05:50;21.50;45.50
10788;DHT22;5446;50.826;4.380;2023-06-14T00:08:15;21.50;45.80
10788;DHT22;5446;50.826;4.380;2023-06-14T00:10:41;21.40;46.00
10788;DHT22;5446;50.826;4.380;2023-06-14T00:13:08;21.40;46.40
10788;DHT22;5446;50.826;4.380;2023-06-14T00:15:34;21.40;46.60
10788;DHT22;5446;50.826;4.380;2023-06-14T00:18:00;21.30;46.70
10788;DHT22;5446;50.826;4.380;2023-06-14T00:20:32;21.30;47.10
10788;DHT22;5446;50.826;4.380;2023-06-14T00:23:01;21.20;47.30
10788;DHT22;5446;50.826;4.380;2023-06-14T00:25:27;21.20;47.60
10788;DHT22;5446;50.826;4.380;2023-06-14T00:27:53;21.20;47.80
10788;DHT22;5446;50.826;4.380;2023-06-14T00:30:20;21.20;48.00
10788;DHT22;5446;50.826;4.380;2023-06-14T00:32:46;21.20;48.20
10788;DHT22;5446;50.826;4.380;2023-06-14T00:35:12;21.10;48.50
10788;DHT22;5446;50.826;4.380;2023-06-14T00:37:38;21.10;48.80
10788;DHT22;5446;50.826;4.380;2023-06-14T00:40:04;21.10;49.20
10788;DHT22;5446;50.826;4.380;2023-06-14T00:42:31;21.00;49.40
10788;DHT22;5446;50.826;4.380;2023-06-14T00:44:57;21.00;49.70
10788;DHT22;5446;50.826;4.380;2023-06-14T00:47:22;21.00;49.80
10788;DHT22;5446;50.826;4.380;2023-06-14T00:49:49;21.00;50.20
10788;DHT22;5446;50.826;4.380;2023-06-14T00:52:16;20.90;50.40
10788;DHT22;5446;50.826;4.380;2023-06-14T00:54:43;20.90;50.80
10788;DHT22;5446;50.826;4.380;2023-06-14T00:57:10;20.90;51.10
10788;DHT22;5446;50.826;4.380;2023-06-14T00:59:44;20.90;51.50
10788;DHT22;5446;50.826;4.380;2023-06-14T01:02:11;20.80;51.70
10788;DHT22;5446;50.826;4.380;2023-06-14T01:04:38;20.80;52.50
10788;DHT22;5446;50.826;4.380;2023-06-14T01:12:54;20.70;52.80
10788;DHT22;5446;50.826;4.380;2023-06-14T01:15:23;20.60;53.20
10788;DHT22;5446;50.826;4.380;2023-06-14T01:17:50;20.60;53.50
10788;DHT22;5446;50.826;4.380;2023-06-14T01:20:17;20.60;54.00
10788;DHT22;5446;50.826;4.380;2023-06-14T01:22:52;20.60;54.10
10788;DHT22;5446;50.826;4.380;2023-06-14T01:25:22;20.60;54.50
10788;DHT22;5446;50.826;4.380;2023-06-14T01:30:18;20.50;55.00
10788;DHT22;5446;50.826;4.380;2023-06-14T01:32:45;20.50;55.40
10788;DHT22;5446;50.826;4.380;2023-06-14T01:35:11;20.40;55.70
10788;DHT22;5446;50.826;4.380;2023-06-14T01:37:37;20.40;56.10
10788;DHT22;5446;50.826;4.380;2023-06-14T01:40:06;20.30;56.50
10788;DHT22;5446;50.826;4.380;2023-06-14T01:42:36;20.20;57.00
10788;DHT22;5446;50.826;4.380;2023-06-14T01:45:03;20.20;57.30
10788;DHT22;5446;50.826;4.380;2023-06-14T01:47:31;20.20;57.70
10788;DHT22;5446;50.826;4.380;2023-06-14T01:49:57;20.10;58.00
10788;DHT22;5446;50.826;4.380;2023-06-14T01:52:23;20.20;58.40
10788;DHT22;5446;50.826;4.380;2023-06-14T01:54:50;20.10;58.80
10788;DHT22;5446;50.826;4.380;2023-06-14T01:57:16;20.00;59.30
10788;DHT22;5446;50.826;4.380;2023-06-14T01:59:41;20.00;60.00
10788;DHT22;5446;50.826;4.380;2023-06-14T02:02:07;19.90;60.80
10788;DHT22;5446;50.826;4.380;2023-06-14T02:04:33;19.90;61.30
10788;DHT22;5446;50.826;4.380;2023-06-14T02:06:59;19.90;61.90
10788;DHT22;5446;50.826;4.380;2023-06-14T02:09:25;19.80;62.30
10788;DHT22;5446;50.826;4.380;2023-06-14T02:11:51;19.80;63.60
10788;DHT22;5446;50.826;4.380;2023-06-14T02:14:17;19.70;63.10
10788;DHT22;5446;50.826;4.380;2023-06-14T02:16:43;19.70;63.90
10788;DHT22;5446;50.826;4.380;2023-06-14T02:19:17;19.70;64.40
10788;DHT22;5446;50.826;4.380;2023-06-14T02:21:44;19.70;65.10
10788;DHT22;5446;50.826;4.380;2023-06-14T02:24:10;19.60;65.80
10788;DHT22;5446;50.826;4.380;2023-06-14T02:26:36;19.60;66.30
10788;DHT22;5446;50.826;4.380;2023-06-14T02:29:07;19.50;67.10
10788;DHT22;5446;50.826;4.380;2023-06-14T02:31:36;19.50;67.70
10788;DHT22;5446;50.826;4.380;2023-06-14T02:34:02;19.50;68.40
10788;DHT22;5446;50.826;4.380;2023-06-14T02:36:28;19.50;68.90
10788;DHT22;5446;50.826;4.380;2023-06-14T02:38:57;19.40;69.40
10788;DHT22;5446;50.826;4.380;2023-06-14T02:41:25;19.40;69.70
10788;DHT22;5446;50.826;4.380;2023-06-14T02:43:52;19.40;70.30
10788;DHT22;5446;50.826;4.380;2023-06-14T02:46:18;19.40;71.10
10788;DHT22;5446;50.826;4.380;2023-06-14T02:48:43;19.30;71.70
10788;DHT22;5446;50.826;4.380;2023-06-14T02:51:09;19.30;72.50
10788;DHT22;5446;50.826;4.380;2023-06-14T02:53:35;19.30;73.30
10788;DHT22;5446;50.826;4.380;2023-06-14T02:56:02;19.20;73.90
10788;DHT22;5446;50.826;4.380;2023-06-14T02:58:29;19.20;74.80
10788;DHT22;5446;50.826;4.380;2023-06-14T03:00:55;19.10;75.80
10788;DHT22;5446;50.826;4.380;2023-06-14T03:03:21;19.10;76.50
10788;DHT22;5446;50.826;4.380;2023-06-14T03:05:48;19.00;77.60
10788;DHT22;5446;50.826;4.380;2023-06-14T03:08:18;19.00;78.20
10788;DHT22;5446;50.826;4.380;2023-06-14T03:10:48;19.00;78.90
10788;DHT22;5446;50.826;4.380;2023-06-14T03:13:14;19.00;80.10
10788;DHT22;5446;50.826;4.380;2023-06-14T03:15:41;19.00;80.90
10788;DHT22;5446;50.826;4.380;2023-06-14T03:18:10;18.90;81.70
10788;DHT22;5446;50.826;4.380;2023-06-14T03:20:38;18.90;82.40
10788;DHT22;5446;50.826;4.380;2023-06-14T03:23:04;18.80;83.20
10788;DHT22;5446;50.826;4.380;2023-06-14T03:25:31;18.80;84.00
10788;DHT22;5446;50.826;4.380;2023-06-14T03:31:20;18.70;86.00
10788;DHT22;5446;50.826;4.380;2023-06-14T03:33:46;18.70;87.40
10788;DHT22;5446;50.826;4.380;2023-06-14T03:36:12;18.70;88.20
10788;DHT22;5446;50.826;4.380;2023-06-14T03:38:38;18.70;89.10
10788;DHT22;5446;50.826;4.380;2023-06-14T03:41:03;18.70;90.00
10788;DHT22;5446;50.826;4.380;2023-06-14T03:43:29;18.60;90.30
10788;DHT22;5446;50.826;4.380;2023-06-14T03:45:55;18.50;90.80
10788;DHT22;5446;50.826;4.380;2023-06-14T03:48:21;18.50;91.20
10788;DHT22;5446;50.826;4.380;2023-06-14T03:50:47;18.50;91.80
10788;DHT22;5446;50.826;4.380;2023-06-14T03:53:12;18.50;92.30
10788;DHT22;5446;50.826;4.380;2023-06-14T03:55:38;18.50;92.80
10788;DHT22;5446;50.826;4.380;2023-06-14T03:58:05;18.40;93.30
10788;DHT22;5446;50.826;4.380;2023-06-14T04:00:31;18.40;93.90
10788;DHT22;5446;50.826;4.380;2023-06-14T04:02:57;18.40;94.20
10788;DHT22;5446;50.826;4.380;2023-06-14T04:05:23;18.40;94.80
10788;DHT22;5446;50.826;4.380;2023-06-14T04:07:51;18.40;95.00
10788;DHT22;5446;50.826;4.380;2023-06-14T04:10:17;18.40;95.00
10788;DHT22;5446;50.826;4.380;2023-06-14T04:12:43;18.40;95.20
10788;DHT22;5446;50.826;4.380;2023-06-14T04:15:09;18.50;95.60
10788;DHT22;5446;50.826;4.380;2023-06-14T04:17:38;18.50;95.60
10788;DHT22;5446;50.826;4.380;2023-06-14T04:20:04;18.50;95.70
10788;DHT22;5446;50.826;4.380;2023-06-14T04:22:31;18.50;95.80
10788;DHT22;5446;50.826;4.380;2023-06-14T04:24:57;18.40;96.00
10788;DHT22;5446;50.826;4.380;2023-06-14T04:27:25;18.40;96.40
10788;DHT22;5446;50.826;4.380;2023-06-14T04:29:55;18.50;96.40
10788;DHT22;5446;50.826;4.380;2023-06-14T04:32:26;18.50;96.60
10788;DHT22;5446;50.826;4.380;2023-06-14T04:34:58;18.60;96.30
10788;DHT22;5446;50.826;4.380;2023-06-14T04:37:25;18.60;96.40
10788;DHT22;5446;50.826;4.380;2023-06-14T04:39:54;18.60;96.20
10788;DHT22;5446;50.826;4.380;2023-06-14T04:42:21;18.60;96.30
10788;DHT22;5446;50.826;4.380;2023-06-14T04:44:51;18.60;96.30
10788;DHT22;5446;50.826;4.380;2023-06-14T04:47:17;18.60;96.30
10788;DHT22;5446;50.826;4.380;2023-06-14T04:49:43;18.50;96.70
10788;DHT22;5446;50.826;4.380;2023-06-14T04:52:10;18.60;96.90
10788;DHT22;5446;50.826;4.380;2023-06-14T04:54:36;18.60;96.70
10788;DHT22;5446;50.826;4.380;2023-06-14T04:57:07;18.60;97.20
10788;DHT22;5446;50.826;4.380;2023-06-14T04:59:34;18.60;96.80
10788;DHT22;5446;50.826;4.380;2023-06-14T05:02:01;18.60;97.00
10788;DHT22;5446;50.826;4.380;2023-06-14T05:04:27;18.70;97.10
10788;DHT22;5446;50.826;4.380;2023-06-14T05:06:54;18.70;97.20
10788;DHT22;5446;50.826;4.380;2023-06-14T05:09:23;18.70;97.30
10788;DHT22;5446;50.826;4.380;2023-06-14T05:11:48;18.70;97.20
10788;DHT22;5446;50.826;4.380;2023-06-14T05:14:16;18.80;97.10
10788;DHT22;5446;50.826;4.380;2023-06-14T05:16:41;18.80;97.30
10788;DHT22;5446;50.826;4.380;2023-06-14T05:19:08;18.80;97.10
10788;DHT22;5446;50.826;4.380;2023-06-14T05:21:36;18.90;97.00
10788;DHT22;5446;50.826;4.380;2023-06-14T05:24:02;18.90;97.00
10788;DHT22;5446;50.826;4.380;2023-06-14T05:26:28;18.90;97.50
10788;DHT22;5446;50.826;4.380;2023-06-14T05:28:58;18.90;97.30
10788;DHT22;5446;50.826;4.380;2023-06-14T05:31:24;19.00;97.30
10788;DHT22;5446;50.826;4.380;2023-06-14T05:33:52;19.00;97.20
10788;DHT22;5446;50.826;4.380;2023-06-14T05:36:17;19.10;97.40
10788;DHT22;5446;50.826;4.380;2023-06-14T05:38:43;19.10;97.10
10788;DHT22;5446;50.826;4.380;2023-06-14T05:41:09;19.10;97.00
10788;DHT22;5446;50.826;4.380;2023-06-14T05:43:35;19.10;97.00
10788;DHT22;5446;50.826;4.380;2023-06-14T05:46:00;19.20;97.30
10788;DHT22;5446;50.826;4.380;2023-06-14T05:48:28;19.20;97.40
10788;DHT22;5446;50.826;4.380;2023-06-14T05:50:53;19.30;97.50
10788;DHT22;5446;50.826;4.380;2023-06-14T05:53:19;19.40;97.30
10788;DHT22;5446;50.826;4.380;2023-06-14T05:55:45;19.40;97.10
10788;DHT22;5446;50.826;4.380;2023-06-14T05:58:12;19.50;97.40
10788;DHT22;5446;50.826;4.380;2023-06-14T06:00:39;19.60;96.10
10788;DHT22;5446;50.826;4.380;2023-06-14T06:03:05;19.60;95.90
10788;DHT22;5446;50.826;4.380;2023-06-14T06:05:33;19.70;96.20
10788;DHT22;5446;50.826;4.380;2023-06-14T06:07:59;19.70;95.80
10788;DHT22;5446;50.826;4.380;2023-06-14T06:10:25;19.70;95.90
10788;DHT22;5446;50.826;4.380;2023-06-14T06:12:51;19.80;96.00
10788;DHT22;5446;50.826;4.380;2023-06-14T06:15:18;19.90;95.80
10788;DHT22;5446;50.826;4.380;2023-06-14T06:17:44;20.00;96.00
10788;DHT22;5446;50.826;4.380;2023-06-14T06:20:10;20.00;95.80
10788;DHT22;5446;50.826;4.380;2023-06-14T06:22:37;20.10;95.20
10788;DHT22;5446;50.826;4.380;2023-06-14T06:25:03;20.10;95.90
10788;DHT22;5446;50.826;4.380;2023-06-14T06:27:29;20.20;96.10
10788;DHT22;5446;50.826;4.380;2023-06-14T06:29:55;20.20;95.00
10788;DHT22;5446;50.826;4.380;2023-06-14T06:32:21;20.20;95.40
10788;DHT22;5446;50.826;4.380;2023-06-14T06:34:47;20.30;94.60
10788;DHT22;5446;50.826;4.380;2023-06-14T06:37:13;20.40;94.50
10788;DHT22;5446;50.826;4.380;2023-06-14T06:39:39;20.40;94.00
10788;DHT22;5446;50.826;4.380;2023-06-14T06:42:05;20.50;94.20
10788;DHT22;5446;50.826;4.380;2023-06-14T06:44:32;20.60;94.20
10788;DHT22;5446;50.826;4.380;2023-06-14T06:46:58;20.60;93.50
10788;DHT22;5446;50.826;4.380;2023-06-14T06:49:23;20.60;93.40
10788;DHT22;5446;50.826;4.380;2023-06-14T06:52:06;20.70;93.30
10788;DHT22;5446;50.826;4.380;2023-06-14T06:54:32;20.70;93.00
10788;DHT22;5446;50.826;4.380;2023-06-14T06:56:58;20.80;93.10
10788;DHT22;5446;50.826;4.380;2023-06-14T06:59:24;21.00;93.30
10788;DHT22;5446;50.826;4.380;2023-06-14T07:01:50;21.10;92.80
10788;DHT22;5446;50.826;4.380;2023-06-14T07:04:16;21.20;92.60
10788;DHT22;5446;50.826;4.380;2023-06-14T07:06:42;21.30;92.40
10788;DHT22;5446;50.826;4.380;2023-06-14T07:09:08;21.40;91.50
10788;DHT22;5446;50.826;4.380;2023-06-14T07:11:38;21.50;90.90
10788;DHT22;5446;50.826;4.380;2023-06-14T07:14:05;21.50;90.40
10788;DHT22;5446;50.826;4.380;2023-06-14T07:16:31;21.60;90.10
10788;DHT22;5446;50.826;4.380;2023-06-14T07:18:56;21.70;89.30
10788;DHT22;5446;50.826;4.380;2023-06-14T07:21:22;21.70;88.00
10788;DHT22;5446;50.826;4.380;2023-06-14T07:23:48;21.80;88.20
10788;DHT22;5446;50.826;4.380;2023-06-14T07:26:14;21.90;87.10
10788;DHT22;5446;50.826;4.380;2023-06-14T07:28:39;22.00;88.00
10788;DHT22;5446;50.826;4.380;2023-06-14T07:31:05;22.00;88.70
10788;DHT22;5446;50.826;4.380;2023-06-14T07:33:31;22.00;88.80
10788;DHT22;5446;50.826;4.380;2023-06-14T07:35:57;22.20;88.60
10788;DHT22;5446;50.826;4.380;2023-06-14T07:38:22;22.20;88.20
10788;DHT22;5446;50.826;4.380;2023-06-14T07:40:48;22.30;89.00
10788;DHT22;5446;50.826;4.380;2023-06-14T07:43:14;22.30;87.50
10788;DHT22;5446;50.826;4.380;2023-06-14T07:45:40;22.30;87.30
10788;DHT22;5446;50.826;4.380;2023-06-14T07:48:05;22.40;85.10
10788;DHT22;5446;50.826;4.380;2023-06-14T07:50:32;22.40;83.00
10788;DHT22;5446;50.826;4.380;2023-06-14T07:52:58;22.50;82.30
10788;DHT22;5446;50.826;4.380;2023-06-14T07:55:23;22.60;83.10
10788;DHT22;5446;50.826;4.380;2023-06-14T07:57:50;22.70;82.00
10788;DHT22;5446;50.826;4.380;2023-06-14T08:00:16;22.70;84.10
10788;DHT22;5446;50.826;4.380;2023-06-14T08:02:44;22.70;81.10
10788;DHT22;5446;50.826;4.380;2023-06-14T08:05:10;22.80;82.20
10788;DHT22;5446;50.826;4.380;2023-06-14T08:07:39;22.90;80.50
10788;DHT22;5446;50.826;4.380;2023-06-14T08:10:06;23.00;79.60
10788;DHT22;5446;50.826;4.380;2023-06-14T08:12:33;23.10;80.80
10788;DHT22;5446;50.826;4.380;2023-06-14T08:14:59;23.20;81.50
10788;DHT22;5446;50.826;4.380;2023-06-14T08:17:25;23.30;80.00
10788;DHT22;5446;50.826;4.380;2023-06-14T08:19:50;23.20;79.10
10788;DHT22;5446;50.826;4.380;2023-06-14T08:22:16;23.30;80.60
10788;DHT22;5446;50.826;4.380;2023-06-14T08:24:43;23.50;79.70
10788;DHT22;5446;50.826;4.380;2023-06-14T08:27:10;23.50;79.50
10788;DHT22;5446;50.826;4.380;2023-06-14T08:29:36;23.60;79.90
10788;DHT22;5446;50.826;4.380;2023-06-14T08:32:04;23.70;77.10
10788;DHT22;5446;50.826;4.380;2023-06-14T08:34:29;23.70;79.50
10788;DHT22;5446;50.826;4.380;2023-06-14T08:36:55;23.80;77.10
10788;DHT22;5446;50.826;4.380;2023-06-14T08:39:21;23.80;76.00
10788;DHT22;5446;50.826;4.380;2023-06-14T08:41:48;23.70;77.30
10788;DHT22;5446;50.826;4.380;2023-06-14T08:44:16;23.80;78.50
10788;DHT22;5446;50.826;4.380;2023-06-14T08:46:42;23.70;77.80
10788;DHT22;5446;50.826;4.380;2023-06-14T08:49:09;23.80;77.30
10788;DHT22;5446;50.826;4.380;2023-06-14T08:51:37;23.60;78.50
10788;DHT22;5446;50.826;4.380;2023-06-14T08:54:03;23.60;79.60
10788;DHT22;5446;50.826;4.380;2023-06-14T08:56:31;23.70;76.60
10788;DHT22;5446;50.826;4.380;2023-06-14T08:58:57;23.60;75.10
10788;DHT22;5446;50.826;4.380;2023-06-14T09:01:28;23.50;75.90
10788;DHT22;5446;50.826;4.380;2023-06-14T09:03:53;23.60;77.00
10788;DHT22;5446;50.826;4.380;2023-06-14T09:06:23;23.60;79.40
10788;DHT22;5446;50.826;4.380;2023-06-14T09:08:50;23.60;78.30
10788;DHT22;5446;50.826;4.380;2023-06-14T09:11:19;23.60;78.50
10788;DHT22;5446;50.826;4.380;2023-06-14T09:13:46;23.60;78.80
10788;DHT22;5446;50.826;4.380;2023-06-14T09:16:12;23.70;78.70
10788;DHT22;5446;50.826;4.380;2023-06-14T09:18:40;23.80;79.20
10788;DHT22;5446;50.826;4.380;2023-06-14T09:21:07;23.90;79.50
10788;DHT22;5446;50.826;4.380;2023-06-14T09:23:44;23.80;80.90
10788;DHT22;5446;50.826;4.380;2023-06-14T09:26:18;23.80;81.10
10788;DHT22;5446;50.826;4.380;2023-06-14T09:28:49;24.00;81.00
10788;DHT22;5446;50.826;4.380;2023-06-14T09:31:20;24.20;79.90
10788;DHT22;5446;50.826;4.380;2023-06-14T09:33:49;24.20;76.30
10788;DHT22;5446;50.826;4.380;2023-06-14T09:36:17;24.10;73.50
10788;DHT22;5446;50.826;4.380;2023-06-14T09:39:01;23.80;74.10
10788;DHT22;5446;50.826;4.380;2023-06-14T09:41:36;24.10;75.10
10788;DHT22;5446;50.826;4.380;2023-06-14T09:44:06;24.30;74.30
10788;DHT22;5446;50.826;4.380;2023-06-14T09:46:33;24.20;70.20
10788;DHT22;5446;50.826;4.380;2023-06-14T09:49:00;24.20;72.00
10788;DHT22;5446;50.826;4.380;2023-06-14T09:51:27;24.20;73.20
10788;DHT22;5446;50.826;4.380;2023-06-14T09:53:55;24.10;72.70
10788;DHT22;5446;50.826;4.380;2023-06-14T09:56:29;24.20;72.70
10788;DHT22;5446;50.826;4.380;2023-06-14T09:58:56;24.40;71.80
10788;DHT22;5446;50.826;4.380;2023-06-14T10:01:27;24.50;70.80
10788;DHT22;5446;50.826;4.380;2023-06-14T10:04:04;24.60;67.60
10788;DHT22;5446;50.826;4.380;2023-06-14T10:06:31;24.60;68.80
10788;DHT22;5446;50.826;4.380;2023-06-14T10:08:59;24.50;67.50
10788;DHT22;5446;50.826;4.380;2023-06-14T10:11:28;24.60;65.70
10788;DHT22;5446;50.826;4.380;2023-06-14T10:13:55;24.50;63.80
10788;DHT22;5446;50.826;4.380;2023-06-14T10:19:37;24.90;66.80
10788;DHT22;5446;50.826;4.380;2023-06-14T10:22:12;24.90;61.40
10788;DHT22;5446;50.826;4.380;2023-06-14T10:24:44;24.70;64.70
10788;DHT22;5446;50.826;4.380;2023-06-14T10:27:13;24.80;65.50
10788;DHT22;5446;50.826;4.380;2023-06-14T10:30:11;24.60;66.40
10788;DHT22;5446;50.826;4.380;2023-06-14T10:33:03;24.70;66.60
10788;DHT22;5446;50.826;4.380;2023-06-14T10:35:29;24.70;66.90
10788;DHT22;5446;50.826;4.380;2023-06-14T10:37:54;24.80;66.20
10788;DHT22;5446;50.826;4.380;2023-06-14T10:40:33;24.70;64.60
10788;DHT22;5446;50.826;4.380;2023-06-14T10:42:59;24.80;63.30
10788;DHT22;5446;50.826;4.380;2023-06-14T10:45:25;24.80;64.50
10788;DHT22;5446;50.826;4.380;2023-06-14T10:47:51;24.90;64.10
10788;DHT22;5446;50.826;4.380;2023-06-14T10:50:27;25.00;64.80
10788;DHT22;5446;50.826;4.380;2023-06-14T10:52:55;24.90;62.20
10788;DHT22;5446;50.826;4.380;2023-06-14T10:55:22;25.20;61.60
10788;DHT22;5446;50.826;4.380;2023-06-14T10:57:49;25.20;59.00
10788;DHT22;5446;50.826;4.380;2023-06-14T11:00:22;25.30;60.20
10788;DHT22;5446;50.826;4.380;2023-06-14T11:03:01;25.50;60.00
10788;DHT22;5446;50.826;4.380;2023-06-14T11:05:53;25.50;59.20
10788;DHT22;5446;50.826;4.380;2023-06-14T11:11:07;25.50;57.70
10788;DHT22;5446;50.826;4.380;2023-06-14T11:13:33;25.60;57.10
10788;DHT22;5446;50.826;4.380;2023-06-14T11:15:59;25.70;57.40
10788;DHT22;5446;50.826;4.380;2023-06-14T11:18:25;25.60;55.70
10788;DHT22;5446;50.826;4.380;2023-06-14T11:20:53;25.40;55.00
10788;DHT22;5446;50.826;4.380;2023-06-14T11:23:19;25.20;53.80
10788;DHT22;5446;50.826;4.380;2023-06-14T11:25:54;25.10;54.40
10788;DHT22;5446;50.826;4.380;2023-06-14T11:28:19;25.30;53.70
10788;DHT22;5446;50.826;4.380;2023-06-14T11:30:59;25.30;53.70
10788;DHT22;5446;50.826;4.380;2023-06-14T11:33:25;25.40;54.10
10788;DHT22;5446;50.826;4.380;2023-06-14T11:35:51;25.60;53.70
10788;DHT22;5446;50.826;4.380;2023-06-14T11:38:17;25.60;54.40
10788;DHT22;5446;50.826;4.380;2023-06-14T11:40:43;25.70;53.40
10788;DHT22;5446;50.826;4.380;2023-06-14T11:43:09;25.80;54.10
10788;DHT22;5446;50.826;4.380;2023-06-14T11:45:35;25.70;51.50
10788;DHT22;5446;50.826;4.380;2023-06-14T11:48:01;25.90;51.00
10788;DHT22;5446;50.826;4.380;2023-06-14T11:50:27;26.00;52.00
10788;DHT22;5446;50.826;4.380;2023-06-14T11:52:58;25.90;52.20
10788;DHT22;5446;50.826;4.380;2023-06-14T11:55:25;26.00;51.00
10788;DHT22;5446;50.826;4.380;2023-06-14T11:57:53;25.90;51.20
10788;DHT22;5446;50.826;4.380;2023-06-14T12:00:19;25.90;51.60
10788;DHT22;5446;50.826;4.380;2023-06-14T12:02:53;26.00;50.50
10788;DHT22;5446;50.826;4.380;2023-06-14T12:05:22;26.20;50.00
10788;DHT22;5446;50.826;4.380;2023-06-14T12:07:48;26.00;50.10
10788;DHT22;5446;50.826;4.380;2023-06-14T12:10:14;25.60;49.90
10788;DHT22;5446;50.826;4.380;2023-06-14T12:12:40;25.40;50.10
10788;DHT22;5446;50.826;4.380;2023-06-14T12:15:08;25.40;52.20
10788;DHT22;5446;50.826;4.380;2023-06-14T12:17:35;25.60;50.00
10788;DHT22;5446;50.826;4.380;2023-06-14T12:20:20;25.60;50.00
10788;DHT22;5446;50.826;4.380;2023-06-14T12:22:54;25.40;50.60
10788;DHT22;5446;50.826;4.380;2023-06-14T12:25:33;25.50;50.10
10788;DHT22;5446;50.826;4.380;2023-06-14T12:28:04;25.50;51.10
10788;DHT22;5446;50.826;4.380;2023-06-14T12:30:31;25.60;49.30
10788;DHT22;5446;50.826;4.380;2023-06-14T12:32:57;25.60;49.50
10788;DHT22;5446;50.826;4.380;2023-06-14T12:35:23;25.80;49.00
10788;DHT22;5446;50.826;4.380;2023-06-14T12:37:48;25.70;47.90
10788;DHT22;5446;50.826;4.380;2023-06-14T12:40:14;25.90;48.40
10788;DHT22;5446;50.826;4.380;2023-06-14T12:42:40;26.00;48.70
10788;DHT22;5446;50.826;4.380;2023-06-14T12:45:07;25.90;46.70
10788;DHT22;5446;50.826;4.380;2023-06-14T12:47:32;25.80;46.70
10788;DHT22;5446;50.826;4.380;2023-06-14T12:49:58;25.80;44.20
10788;DHT22;5446;50.826;4.380;2023-06-14T12:52:24;25.70;45.60
10788;DHT22;5446;50.826;4.380;2023-06-14T12:54:50;25.70;46.10
10788;DHT22;5446;50.826;4.380;2023-06-14T12:57:15;26.00;45.80
10788;DHT22;5446;50.826;4.380;2023-06-14T12:59:41;26.20;46.60
10788;DHT22;5446;50.826;4.380;2023-06-14T13:02:15;26.20;45.10
10788;DHT22;5446;50.826;4.380;2023-06-14T13:04:40;26.20;42.20
10788;DHT22;5446;50.826;4.380;2023-06-14T13:07:06;26.20;44.10
10788;DHT22;5446;50.826;4.380;2023-06-14T13:09:32;26.20;44.40
10788;DHT22;5446;50.826;4.380;2023-06-14T13:11:58;26.30;44.70
10788;DHT22;5446;50.826;4.380;2023-06-14T13:14:23;26.70;45.30
10788;DHT22;5446;50.826;4.380;2023-06-14T13:16:49;26.80;45.50
10788;DHT22;5446;50.826;4.380;2023-06-14T13:19:15;26.50;43.20
10788;DHT22;5446;50.826;4.380;2023-06-14T13:21:41;26.50;44.00
10788;DHT22;5446;50.826;4.380;2023-06-14T13:24:07;26.20;43.80
10788;DHT22;5446;50.826;4.380;2023-06-14T13:26:33;26.20;44.30
10788;DHT22;5446;50.826;4.380;2023-06-14T13:28:59;26.00;44.00
10788;DHT22;5446;50.826;4.380;2023-06-14T13:31:25;25.90;44.30
10788;DHT22;5446;50.826;4.380;2023-06-14T13:33:51;26.20;44.20
10788;DHT22;5446;50.826;4.380;2023-06-14T13:36:17;26.20;43.00
10788;DHT22;5446;50.826;4.380;2023-06-14T13:38:43;26.10;42.00
10788;DHT22;5446;50.826;4.380;2023-06-14T13:41:08;26.10;42.30
10788;DHT22;5446;50.826;4.380;2023-06-14T13:43:34;26.30;42.90
10788;DHT22;5446;50.826;4.380;2023-06-14T13:46:00;26.70;42.90
10788;DHT22;5446;50.826;4.380;2023-06-14T13:48:26;26.80;41.80
10788;DHT22;5446;50.826;4.380;2023-06-14T13:50:51;26.60;40.60
10788;DHT22;5446;50.826;4.380;2023-06-14T13:53:17;26.60;40.90
10788;DHT22;5446;50.826;4.380;2023-06-14T13:55:43;27.00;41.80
10788;DHT22;5446;50.826;4.380;2023-06-14T13:58:09;26.80;37.90
10788;DHT22;5446;50.826;4.380;2023-06-14T14:00:34;26.70;38.20
10788;DHT22;5446;50.826;4.380;2023-06-14T14:03:06;26.80;37.90
10788;DHT22;5446;50.826;4.380;2023-06-14T14:05:31;26.90;36.70
10788;DHT22;5446;50.826;4.380;2023-06-14T14:07:57;27.20;37.30
10788;DHT22;5446;50.826;4.380;2023-06-14T14:10:24;27.00;34.40
10788;DHT22;5446;50.826;4.380;2023-06-14T14:12:51;26.90;35.10
10788;DHT22;5446;50.826;4.380;2023-06-14T14:15:17;27.00;36.10
10788;DHT22;5446;50.826;4.380;2023-06-14T14:17:43;27.20;35.00
10788;DHT22;5446;50.826;4.380;2023-06-14T14:20:09;26.60;35.00
10788;DHT22;5446;50.826;4.380;2023-06-14T14:22:37;26.80;35.30
10788;DHT22;5446;50.826;4.380;2023-06-14T14:25:02;26.90;35.20
10788;DHT22;5446;50.826;4.380;2023-06-14T14:27:28;27.10;34.80
10788;DHT22;5446;50.826;4.380;2023-06-14T14:29:54;27.40;35.60
10788;DHT22;5446;50.826;4.380;2023-06-14T14:32:20;27.40;34.20
10788;DHT22;5446;50.826;4.380;2023-06-14T14:34:45;27.30;33.10
10788;DHT22;5446;50.826;4.380;2023-06-14T14:37:11;26.90;32.80
10788;DHT22;5446;50.826;4.380;2023-06-14T14:39:38;26.90;33.40
10788;DHT22;5446;50.826;4.380;2023-06-14T14:42:04;27.20;33.80
10788;DHT22;5446;50.826;4.380;2023-06-14T14:44:30;27.20;32.00
10788;DHT22;5446;50.826;4.380;2023-06-14T14:46:56;27.50;33.60
10788;DHT22;5446;50.826;4.380;2023-06-14T14:49:22;27.70;34.20
10788;DHT22;5446;50.826;4.380;2023-06-14T14:51:48;27.50;31.30
10788;DHT22;5446;50.826;4.380;2023-06-14T14:54:13;27.30;32.30
10788;DHT22;5446;50.826;4.380;2023-06-14T14:56:39;27.50;31.90
10788;DHT22;5446;50.826;4.380;2023-06-14T14:59:05;27.50;31.50
10788;DHT22;5446;50.826;4.380;2023-06-14T15:01:30;27.40;31.10
10788;DHT22;5446;50.826;4.380;2023-06-14T15:03:56;27.60;30.40
10788;DHT22;5446;50.826;4.380;2023-06-14T15:06:22;27.70;29.70
10788;DHT22;5446;50.826;4.380;2023-06-14T15:08:47;27.90;29.30
10788;DHT22;5446;50.826;4.380;2023-06-14T15:11:13;27.90;28.60
10788;DHT22;5446;50.826;4.380;2023-06-14T15:13:39;28.10;28.80
10788;DHT22;5446;50.826;4.380;2023-06-14T15:16:04;28.10;29.00
10788;DHT22;5446;50.826;4.380;2023-06-14T15:18:30;28.60;29.10
10788;DHT22;5446;50.826;4.380;2023-06-14T15:20:56;28.60;28.60
10788;DHT22;5446;50.826;4.380;2023-06-14T15:23:21;28.60;28.90
10788;DHT22;5446;50.826;4.380;2023-06-14T15:25:48;28.40;28.80
10788;DHT22;5446;50.826;4.380;2023-06-14T15:28:13;28.60;29.40
10788;DHT22;5446;50.826;4.380;2023-06-14T15:30:39;29.20;28.70
10788;DHT22;5446;50.826;4.380;2023-06-14T15:33:05;29.20;27.90
10788;DHT22;5446;50.826;4.380;2023-06-14T15:35:31;29.20;27.80
10788;DHT22;5446;50.826;4.380;2023-06-14T15:37:56;29.20;27.80
10788;DHT22;5446;50.826;4.380;2023-06-14T15:40:22;29.70;26.90
10788;DHT22;5446;50.826;4.380;2023-06-14T15:42:48;30.00;27.40
10788;DHT22;5446;50.826;4.380;2023-06-14T15:45:14;29.90;27.00
10788;DHT22;5446;50.826;4.380;2023-06-14T15:47:39;29.50;26.90
10788;DHT22;5446;50.826;4.380;2023-06-14T15:50:06;29.90;27.10
10788;DHT22;5446;50.826;4.380;2023-06-14T15:52:34;30.00;26.80
10788;DHT22;5446;50.826;4.380;2023-06-14T15:55:00;30.00;26.30
10788;DHT22;5446;50.826;4.380;2023-06-14T15:57:27;30.70;26.40
10788;DHT22;5446;50.826;4.380;2023-06-14T15:59:52;31.10;24.90
10788;DHT22;5446;50.826;4.380;2023-06-14T16:02:18;31.20;24.30